Nearby METAR Reports

 

KBML - Berlin, NH
Updated: Sat, 26-May-2018 6:52pm EDT
Partly cloudy
Partly cloudy
 Wind from calm
Wind: Calm
Temperature: 70°F , 21°C
Dew Point: 63°F , 17°C
Humidity: 78%
Barometer: 29.90 inHg , 1012.5 hPa
Clouds: Partly cloudy
Visibility: 10 miles , 16 km
Cloud details: Partly cloudy 5500 ft
2018/05/26 22:52 KBML 262252Z AUTO 00000KT 10SM SCT055 21/17 A2990 RMK AO2 SLP121 T02060172
KCON - Concord, NH
Updated: Sat, 26-May-2018 6:51pm EDT
Few Clouds
Few Clouds
 Wind from calm
Wind: Calm
Temperature: 70°F , 21°C
Dew Point: 66°F , 19°C
Humidity: 88%
Barometer: 29.86 inHg , 1011.2 hPa
Clouds: Few Clouds
Visibility: 10 miles , 16 km
Cloud details: Few Clouds 12000 ft
2018/05/26 22:51 KCON 262251Z AUTO 00000KT 10SM FEW120 21/19 A2986 RMK AO2 SLP110 T02110189
KAFN - Lebanon, NH
Updated: Sat, 26-May-2018 6:52pm EDT
Clear
Clear
 Wind from N
Wind: N 9 mph , 15 km/h, Gust: 18 mph , 30 km/h
Temperature: 79°F , 26°C
Dew Point: 63°F , 17°C
Humidity: 58%
Barometer: 29.86 inHg , 1011.2 hPa
Clouds: Clear
Visibility: 10 miles , 16 km
2018/05/26 22:52 KAFN 262252Z AUTO 01008G16KT 330V030 10SM CLR 26/17 A2986 RMK AO2 SLP109 T02610167
 
KMHT - Manchester, NH
Updated: Sat, 26-May-2018 6:53pm EDT
Overcast
Overcast
 Wind from ENE
Wind: ENE 12 mph , 19 km/h
Temperature: 73°F , 23°C
Dew Point: 63°F , 17°C
Humidity: 69%
Barometer: 29.83 inHg , 1010.2 hPa
Clouds: Overcast
Visibility: 10 miles , 16 km
Cloud details: Few Clouds 6000 ft
Overcast 15000 ft
2018/05/26 22:53 KMHT 262253Z 07010KT 10SM FEW060 OVC150 23/17 A2983 RMK AO2 SLP111 TSB2156E11 T02330167
KMWN - Mount Washington
Updated: Sat, 26-May-2018 6:51pm EDT

 Wind from NNE
Wind: NNE 13 mph , 20 km/h
Visibility: 50 miles , 80 km
2018/05/26 22:51 KMWN 262251Z 02011KT 50SM BKN/// FEW/// FEW010 SCT015 BKN030 OVC100 08/05 RMK SCSL E TPS LWR BKN035 BBLO FEW E
K25B - Portsmouth Harbor
Updated: Wed, 31-Dec-1969 7:00pm EST
NOT Current
unable to load K25B data RC=404 Not Found
unable to load K25B data RC=404 Not Found
 
 
KDDH - Bennington, VT
Updated: Sat, 26-May-2018 6:54pm EDT
Few Clouds
Few Clouds
 Wind from calm
Wind: Calm
Temperature: 79°F , 26°C
Dew Point: 61°F , 16°C
Humidity: 54%
Barometer: 29.82 inHg , 1009.8 hPa
Clouds: Few Clouds
Visibility: 10 miles , 16 km
Cloud details: Few Clouds 12000 ft
2018/05/26 22:54 KDDH 262254Z AUTO 00000KT 10SM FEW120 26/16 A2982 RMK AO2 SLP094 T02610156
K9B2 - Newport, VT
Updated: Wed, 31-Dec-1969 7:00pm EST
NOT Current
unable to load K9B2 data RC=404 Not Found
unable to load K9B2 data RC=404 Not Found
 
K1V4 - St Johnsbury, VT
Updated: Sat, 26-May-2018 6:54pm EDT

 
Temperature: 68°F , 20°C
Dew Point: 64°F , 18°C
Humidity: 88%
Barometer: 29.88 inHg , 1011.9 hPa
2018/05/26 22:54 K1V4 262254Z AUTO 20/18 A2988 RMK AO1 SLP110 T02000178
 
KBGR - Bangor, ME
Updated: Sat, 26-May-2018 6:53pm EDT
Overcast
Overcast
 Wind from N
Wind: N 13 mph , 20 km/h
Temperature: 72°F , 22°C
Dew Point: 43°F , 6°C
Humidity: 36%
Barometer: 29.90 inHg , 1012.5 hPa
Clouds: Overcast
Visibility: 10 miles , 16 km
Cloud details: Few Clouds 4500 ft
Few Clouds 9000 ft
Few Clouds 14000 ft
Overcast 25000 ft
2018/05/26 22:53 KBGR 262253Z 01011KT 10SM FEW045 FEW090 FEW140 OVC250 22/06 A2990 RMK AO2 SLP122 T02220061
KBHB - Bar Harbor, ME
Updated: Sat, 26-May-2018 6:56pm EDT
Clear
Clear
 Wind from varies
Wind: varies 3 mph , 6 km/h
Temperature: 66°F , 19°C
Dew Point: 50°F , 10°C
Humidity: 56%
Barometer: 29.89 inHg , 1012.2 hPa
Clouds: Clear
Visibility: 10 miles , 16 km
2018/05/26 22:56 KBHB 262256Z AUTO VRB03KT 10SM CLR 19/10 A2989 RMK AO2 SLP126 T01890100 $
74389 - Gray, ME
Updated: Wed, 31-Dec-1969 7:00pm EST
NOT Current
74389 not loaded
74389 not loaded
 
 
KGNR - Greenville,ME
Updated: Sat, 26-May-2018 6:56pm EDT

 Wind from NNE
Wind: NNE 7 mph , 11 km/h
Temperature: 63°F , 17°C
Dew Point: 34°F , 1°C
Humidity: 34%
Barometer: 29.93 inHg , 1013.5 hPa
2018/05/26 22:56 KGNR 262256Z AUTO 03006KT 17/01 A2993 RMK AO1 SLP134 T01720011
KOLD - Old Town, ME
Updated: Wed, 31-Dec-1969 7:00pm EST
NOT Current
unable to load KOLD data RC=404 Not Found
unable to load KOLD data RC=404 Not Found
 
KRUM - Rumford, ME
Updated: Wed, 31-Dec-1969 7:00pm EST
NOT Current
unable to load KRUM data RC=404 Not Found
unable to load KRUM data RC=404 Not Found
 







Contact Us

© 2018, johnsnhweather | Weather-Display (10.37S-(b69)) | Valid XHTML 1.0 | Valid CSS

This website is neither affiliated with nor endorsed by the National Weather Service, the town of Pittsburg or any other government agency.
The weather data contained herein is offered without any warranties expressed or implied, and is meant to supplement NOAA weather forecasts and information. Never base important decisions that could result in harm to people or property on this weather information.